Time;durP1;ratioP1;P1;durP2;ratioP2;P2;SDS_P1;SDS_P2;PMS_P1;PMS_P2;Temp;Humidity;BMP_temperature;BMP_pressure;BME280_temperature;BME280_humidity;BME280_pressure;Samples;Min_cycle;Max_cycle;Signal;HPM_P1;HPM_P2
2022/03/23 00:01:18;;;;;;;9.45;3.40;;;;;;;6.06;35.60;96123.16;4917713;29;20158;-78
2022/03/23 00:03:43;;;;;;;8.35;3.13;;;;;;;6.11;36.08;96118.25;4901379;29;20040;-78
2022/03/23 00:06:09;;;;;;;17.75;3.90;;;;;;;6.09;35.42;96125.38;4900863;29;20028;-79
2022/03/23 00:08:34;;;;;;;6.88;2.80;;;;;;;6.06;35.63;96123.16;4902018;29;20036;-79
2022/03/23 00:11:01;;;;;;;11.35;3.83;;;;;;;6.14;35.53;96123.88;4917365;29;20377;-79
2022/03/23 00:13:27;;;;;;;5.70;3.22;;;;;;;6.09;35.58;96125.38;4901066;29;20039;-78
2022/03/23 00:15:54;;;;;;;7.97;3.70;;;;;;;6.10;35.78;96117.47;4909688;29;20432;-79
2022/03/23 00:18:19;;;;;;;10.30;4.00;;;;;;;6.15;35.69;96124.69;4937021;29;20032;-79
2022/03/23 00:20:45;;;;;;;13.25;3.33;;;;;;;6.10;35.97;96120.03;4909447;29;20040;-79
2022/03/23 00:23:10;;;;;;;10.75;3.90;;;;;;;6.16;36.17;96116.75;4901422;29;20488;-79
2022/03/23 00:25:36;;;;;;;12.30;3.53;;;;;;;6.23;35.86;96114.31;4912412;29;20039;-78
2022/03/23 00:28:05;;;;;;;9.25;4.22;;;;;;;6.22;36.10;96121.25;4885151;29;20040;-79
2022/03/23 00:30:32;;;;;;;9.40;3.72;;;;;;;6.19;35.88;96120.81;4899457;29;20040;-79
2022/03/23 00:32:58;;;;;;;7.90;3.40;;;;;;;6.29;35.47;96118.78;4901146;29;20142;-78
2022/03/23 00:35:23;;;;;;;7.97;3.33;;;;;;;6.26;35.56;96111.38;4901072;29;20466;-78
2022/03/23 00:37:50;;;;;;;15.82;4.18;;;;;;;6.22;35.58;96115.28;4900520;29;20044;-78
2022/03/23 00:40:15;;;;;;;10.70;3.97;;;;;;;6.16;35.43;96115.97;4917480;29;20046;-78
2022/03/23 00:42:41;;;;;;;8.18;4.55;;;;;;;6.10;35.74;96114.88;4916892;29;20056;-79
2022/03/23 00:45:07;;;;;;;8.43;3.85;;;;;;;6.12;36.44;96112.13;4900578;29;20096;-78
2022/03/23 00:47:33;;;;;;;11.73;4.32;;;;;;;6.17;35.87;96117.56;4916036;29;20032;-78
2022/03/23 00:49:58;;;;;;;9.75;4.78;;;;;;;6.23;35.80;96122.06;4899745;29;20036;-79
2022/03/23 00:52:24;;;;;;;10.23;3.38;;;;;;;6.21;35.80;96121.44;4899484;29;20467;-80
2022/03/23 00:54:49;;;;;;;14.50;4.13;;;;;;;6.08;35.55;96119.41;4917064;29;20055;-79
2022/03/23 00:57:15;;;;;;;19.05;4.07;;;;;;;6.10;36.15;96125.22;4900347;29;20039;-79
2022/03/23 00:59:40;;;;;;;8.10;4.13;;;;;;;6.15;36.32;96119.53;4915762;29;20083;-79
2022/03/23 01:02:07;;;;;;;15.10;4.50;;;;;;;6.22;36.27;96120.47;4926595;29;20040;-79
2022/03/23 01:04:32;;;;;;;4.80;3.50;;;;;;;6.12;36.12;96125.84;4898573;29;20132;-79
2022/03/23 01:06:58;;;;;;;10.15;4.13;;;;;;;6.18;35.69;96114.00;4893683;29;20032;-79
2022/03/23 01:09:23;;;;;;;12.48;3.97;;;;;;;6.23;35.96;96122.06;4917924;29;20477;-79
2022/03/23 01:11:53;;;;;;;11.02;4.15;;;;;;;6.26;35.74;96121.72;4900897;29;20205;-80
2022/03/23 01:14:19;;;;;;;11.85;4.25;;;;;;;6.32;35.67;96118.44;4917408;29;20130;-79
2022/03/23 01:16:44;;;;;;;6.75;4.20;;;;;;;6.35;36.08;96115.53;4917768;29;20040;-79
2022/03/23 01:19:10;;;;;;;10.18;4.68;;;;;;;6.33;35.62;96117.44;4926079;29;20059;-79
2022/03/23 01:21:36;;;;;;;12.63;4.10;;;;;;;6.32;35.62;96108.09;4921661;29;20055;-80
2022/03/23 01:24:02;;;;;;;22.20;4.53;;;;;;;6.35;35.46;96104.38;4886347;29;20044;-79
2022/03/23 01:26:27;;;;;;;12.43;4.72;;;;;;;6.40;35.51;96105.47;4926028;29;20042;-79
2022/03/23 01:28:53;;;;;;;9.57;4.65;;;;;;;6.33;35.98;96105.34;4916003;29;20431;-79
2022/03/23 01:31:18;;;;;;;12.02;4.20;;;;;;;6.29;35.49;96095.53;4914714;29;20033;-78
2022/03/23 01:33:44;;;;;;;12.30;4.57;;;;;;;6.31;35.70;96096.16;4913523;29;20044;-79
2022/03/23 01:36:10;;;;;;;11.00;4.03;;;;;;;6.27;35.74;96102.66;4883279;29;20040;-79
2022/03/23 01:38:36;;;;;;;7.68;4.43;;;;;;;6.28;35.79;96093.94;4916558;29;20036;-79
2022/03/23 01:41:04;;;;;;;10.90;3.90;;;;;;;6.24;36.10;96103.81;4917991;29;20043;-79
2022/03/23 01:43:30;;;;;;;10.15;3.88;;;;;;;6.21;35.83;96098.19;4901238;29;20048;-79
2022/03/23 01:45:55;;;;;;;5.18;2.95;;;;;;;6.06;36.13;96100.72;4902410;29;20043;-79
2022/03/23 01:48:21;;;;;;;9.77;3.65;;;;;;;5.94;36.80;96097.72;4919319;29;20783;-79
2022/03/23 01:50:47;;;;;;;18.27;4.70;;;;;;;5.92;36.52;96094.50;4919982;29;20032;-79
2022/03/23 01:53:13;;;;;;;18.10;3.45;;;;;;;5.86;36.93;96104.69;4886738;29;20036;-79
2022/03/23 01:55:38;;;;;;;8.02;3.65;;;;;;;5.85;36.96;96100.47;4919471;29;20029;-79
2022/03/23 01:58:04;;;;;;;11.65;3.88;;;;;;;5.81;36.39;96092.28;4918398;29;20080;-79
2022/03/23 02:00:30;;;;;;;5.90;4.00;;;;;;;5.79;36.43;96101.97;4901550;29;20036;-79
2022/03/23 02:02:57;;;;;;;17.42;4.03;;;;;;;5.75;36.70;96097.31;4901450;29;20686;-79
2022/03/23 02:05:23;;;;;;;9.48;3.92;;;;;;;5.65;37.23;96092.38;4902230;29;20083;-79
2022/03/23 02:07:49;;;;;;;19.50;5.80;;;;;;;5.60;37.32;96086.91;4902050;29;20032;-79
2022/03/23 02:10:14;;;;;;;16.20;4.07;;;;;;;5.54;37.39;96085.03;4902351;29;20040;-79
2022/03/23 02:12:40;;;;;;;10.18;3.80;;;;;;;5.46;37.33;96092.78;4910351;29;20072;-79
2022/03/23 02:15:14;;;;;;;9.52;4.60;;;;;;;5.45;37.52;96098.91;4929674;29;20042;-80
2022/03/23 02:17:42;;;;;;;7.65;5.05;;;;;;;5.41;37.60;96091.53;4920143;29;20036;-79
2022/03/23 02:20:08;;;;;;;18.73;6.07;;;;;;;5.37;37.92;96092.84;4925200;29;20060;-79
2022/03/23 02:22:33;;;;;;;11.85;4.63;;;;;;;5.38;37.92;96094.44;4918617;29;20059;-79
2022/03/23 02:24:59;;;;;;;9.85;4.30;;;;;;;5.32;38.25;96087.34;4919104;29;20044;-79
2022/03/23 02:27:25;;;;;;;10.95;4.75;;;;;;;5.33;38.49;96096.69;4921559;29;20036;-79
2022/03/23 02:29:50;;;;;;;10.52;5.70;;;;;;;5.25;38.65;96094.16;4927379;29;20032;-80
2022/03/23 02:32:16;;;;;;;14.27;5.95;;;;;;;5.20;38.65;96091.25;4923730;29;20036;-79
2022/03/23 02:34:42;;;;;;;14.38;5.72;;;;;;;5.20;39.07;96096.41;4928151;29;20028;-79
2022/03/23 02:37:08;;;;;;;9.48;5.40;;;;;;;5.10;39.03;96101.00;4921589;29;20047;-79
2022/03/23 02:39:34;;;;;;;15.55;4.60;;;;;;;5.04;39.24;96093.91;4938830;23;20076;-78
2022/03/23 02:41:59;;;;;;;10.57;4.55;;;;;;;4.94;39.13;96098.44;4933009;29;20043;-78
2022/03/23 02:44:29;;;;;;;10.55;4.20;;;;;;;4.86;39.42;96091.53;4915424;29;20036;-78
2022/03/23 02:46:55;;;;;;;6.50;3.53;;;;;;;4.80;40.02;96102.50;4889512;29;20033;-77
2022/03/23 02:49:21;;;;;;;9.05;3.85;;;;;;;4.69;39.78;96106.22;4914482;29;20036;-78
2022/03/23 02:51:47;;;;;;;6.07;3.60;;;;;;;4.64;39.99;96112.84;4875144;29;20040;-78
2022/03/23 03:02:56;;;;;;;10.57;3.50;;;;;;;4.32;41.33;96116.22;4911186;29;20524;-78
2022/03/23 03:05:22;;;;;;;7.55;3.95;;;;;;;4.26;41.36;96107.38;4916066;29;20037;-78
2022/03/23 03:10:31;;;;;;;9.65;3.70;;;;;;;4.15;42.24;96113.66;4893097;29;20066;-79
2022/03/23 03:12:56;;;;;;;20.30;3.50;;;;;;;4.10;42.27;96110.75;4890825;29;20513;-78
2022/03/23 03:15:22;;;;;;;5.53;3.47;;;;;;;4.07;42.35;96105.94;4911127;29;20045;-79
2022/03/23 03:17:47;;;;;;;10.10;3.90;;;;;;;4.07;42.65;96110.28;4879150;29;20488;-79
2022/03/23 03:20:16;;;;;;;7.78;3.88;;;;;;;4.07;42.79;96105.13;4905025;29;20385;-78
2022/03/23 03:22:47;;;;;;;8.57;3.75;;;;;;;4.06;43.25;96117.16;4905999;29;20082;-78
2022/03/23 03:25:15;;;;;;;12.68;4.10;;;;;;;4.01;42.96;96116.84;4912605;29;20532;-78
2022/03/23 03:27:41;;;;;;;13.32;4.13;;;;;;;3.93;43.08;96124.56;4913773;29;20115;-78
2022/03/23 03:30:07;;;;;;;13.73;4.15;;;;;;;3.88;43.46;96119.06;4907819;29;20145;-77
2022/03/23 03:32:33;;;;;;;8.23;3.70;;;;;;;3.85;43.72;96116.81;4873894;29;20084;-78
2022/03/23 03:34:58;;;;;;;6.68;3.97;;;;;;;3.82;43.74;96117.94;4914809;23;20040;-79
2022/03/23 03:37:24;;;;;;;4.78;3.40;;;;;;;3.77;44.03;96109.09;4917268;29;20492;-78
2022/03/23 03:39:49;;;;;;;8.50;3.80;;;;;;;3.75;44.36;96111.03;4911167;29;20041;-78
2022/03/23 03:42:15;;;;;;;6.70;4.03;;;;;;;3.77;43.87;96109.91;4905733;29;20143;-78
2022/03/23 03:44:40;;;;;;;13.50;4.60;;;;;;;3.71;44.12;96104.56;4890286;29;20047;-77
2022/03/23 03:47:06;;;;;;;12.35;5.32;;;;;;;3.75;44.41;96109.25;4904843;29;20087;-78
2022/03/23 03:49:32;;;;;;;10.23;4.65;;;;;;;3.70;44.49;96113.25;4905893;29;20095;-78
2022/03/23 03:51:58;;;;;;;10.48;5.05;;;;;;;3.70;44.52;96113.25;4889223;29;20028;-78
2022/03/23 03:54:24;;;;;;;7.63;4.60;;;;;;;3.75;44.45;96111.81;4890172;29;20127;-79
2022/03/23 03:56:49;;;;;;;10.27;4.45;;;;;;;3.71;45.12;96114.84;4915790;29;20029;-79
2022/03/23 03:59:15;;;;;;;5.88;4.03;;;;;;;3.67;45.18;96116.13;4929728;29;20484;-80
2022/03/23 04:01:41;;;;;;;20.80;4.55;;;;;;;3.72;45.47;96116.47;4908429;29;20032;-78
2022/03/23 04:04:06;;;;;;;14.07;4.55;;;;;;;3.77;45.69;96116.81;4900958;29;20091;-78
2022/03/23 04:06:32;;;;;;;11.38;4.65;;;;;;;3.79;45.57;96117.47;4911285;29;20413;-78
2022/03/23 04:08:57;;;;;;;7.80;4.80;;;;;;;3.79;45.73;96117.47;4908606;29;20544;-79
2022/03/23 04:11:23;;;;;;;12.90;3.95;;;;;;;3.81;45.84;96112.94;4890478;29;20819;-78
2022/03/23 04:13:48;;;;;;;8.48;4.57;;;;;;;3.88;45.51;96119.06;4928836;29;20028;-79
2022/03/23 04:16:14;;;;;;;8.93;4.40;;;;;;;3.93;45.42;96116.84;4902575;29;20488;-78
2022/03/23 04:18:39;;;;;;;20.30;4.45;;;;;;;3.87;45.63;96120.03;4932074;29;20037;-77
2022/03/23 04:21:05;;;;;;;10.77;4.82;;;;;;;3.94;46.01;96118.44;4905421;29;20493;-78
2022/03/23 04:23:31;;;;;;;5.97;4.38;;;;;;;3.98;45.72;96122.31;4901921;29;20093;-78
2022/03/23 04:25:56;;;;;;;10.07;4.78;;;;;;;4.12;45.12;96121.69;4927530;29;20047;-77
2022/03/23 04:28:22;;;;;;;10.20;5.28;;;;;;;4.12;45.66;96124.25;4901864;29;20047;-77
2022/03/23 04:30:48;;;;;;;8.07;4.68;;;;;;;4.10;45.65;96123.63;4901977;29;20047;-77
2022/03/23 04:33:13;;;;;;;29.40;5.00;;;;;;;4.09;45.39;96114.28;4903584;29;20044;-78
2022/03/23 04:35:39;;;;;;;7.40;4.68;;;;;;;4.15;45.28;96121.38;4910391;29;20040;-78
2022/03/23 04:38:05;;;;;;;12.10;4.40;;;;;;;4.22;45.57;96130.03;4904496;29;20050;-78
2022/03/23 04:40:31;;;;;;;16.45;5.38;;;;;;;4.29;45.22;96130.22;4888757;29;20032;-78
2022/03/23 04:43:00;;;;;;;37.92;6.05;;;;;;;4.38;45.20;96126.69;4928599;29;20063;-79
2022/03/23 04:45:26;;;;;;;12.73;4.55;;;;;;;4.47;45.19;96127.50;4907413;29;20036;-78
2022/03/23 04:47:51;;;;;;;6.88;4.78;;;;;;;4.64;44.85;96126.53;4905076;29;20056;-78
2022/03/23 04:50:17;;;;;;;10.85;5.07;;;;;;;4.71;44.91;96124.88;4908282;29;20036;-81
2022/03/23 04:52:43;;;;;;;18.03;5.33;;;;;;;4.68;44.93;96120.06;4905868;29;20040;-80
2022/03/23 04:55:10;;;;;;;11.07;4.38;;;;;;;4.73;45.26;96122.19;4907270;29;20792;-78
2022/03/23 04:57:35;;;;;;;14.63;4.60;;;;;;;4.79;44.86;96130.03;4893031;29;20060;-79
2022/03/23 05:00:01;;;;;;;14.38;4.95;;;;;;;5.10;44.27;96129.34;4932637;29;20099;-78
2022/03/23 05:02:26;;;;;;;28.15;5.15;;;;;;;5.25;43.47;96127.69;4909590;29;20032;-78
2022/03/23 05:04:52;;;;;;;8.00;4.30;;;;;;;5.60;43.16;96130.78;4908497;29;20040;-78
2022/03/23 05:07:18;;;;;;;11.82;4.32;;;;;;;5.87;42.90;96130.34;4893272;29;20076;-81
2022/03/23 05:09:43;;;;;;;9.20;3.50;;;;;;;6.97;40.60;96124.81;4905180;29;20488;-78
2022/03/23 05:12:09;;;;;;;9.45;4.40;;;;;;;8.49;37.68;96119.66;4910728;29;20473;-74
2022/03/23 05:14:34;;;;;;;16.50;4.85;;;;;;;9.14;36.20;96122.94;4909009;29;20045;-77
2022/03/23 05:17:00;;;;;;;8.93;4.38;;;;;;;10.21;34.13;96116.19;4910930;29;20033;-78
2022/03/23 05:19:26;;;;;;;8.43;4.00;;;;;;;11.32;31.98;96116.38;4908494;29;20052;-80
2022/03/23 05:21:51;;;;;;;11.68;4.03;;;;;;;11.31;31.93;96127.81;4910483;29;20036;-77
2022/03/23 05:24:17;;;;;;;16.70;4.43;;;;;;;11.63;30.81;96122.72;4908833;29;20028;-77
2022/03/23 05:26:42;;;;;;;10.13;3.97;;;;;;;11.32;31.42;96119.00;4913182;29;20088;-77
2022/03/23 05:29:09;;;;;;;10.27;5.47;;;;;;;10.96;32.13;96135.06;4915436;29;20077;-79
2022/03/23 05:31:34;;;;;;;12.77;4.60;;;;;;;10.78;32.72;96124.47;4910771;29;20028;-78
2022/03/23 05:34:00;;;;;;;12.88;4.78;;;;;;;10.69;33.24;96131.66;4925065;29;20039;-77
2022/03/23 05:36:25;;;;;;;21.38;5.07;;;;;;;10.78;32.71;96129.69;4907171;29;20044;-78
2022/03/23 05:38:51;;;;;;;16.17;5.07;;;;;;;10.45;33.45;96135.66;4910222;29;20029;-77
2022/03/23 05:41:17;;;;;;;12.07;4.75;;;;;;;10.57;33.38;96135.84;4909108;29;20040;-77
2022/03/23 05:46:14;;;;;;;17.42;4.82;;;;;;;9.93;35.20;96136.31;4932930;23;20064;-76
2022/03/23 05:48:40;;;;;;;21.35;5.22;;;;;;;9.97;34.43;96137.50;4936848;28;20054;-76
2022/03/23 05:51:06;;;;;;;15.00;5.75;;;;;;;10.13;34.30;96134.56;4931741;29;20024;-76
2022/03/23 05:53:32;;;;;;;6.68;4.38;;;;;;;10.15;34.29;96134.38;4931460;29;20119;-76
2022/03/23 05:55:58;;;;;;;9.30;4.47;;;;;;;10.32;34.67;96140.03;4929178;29;20411;-76
2022/03/23 05:58:23;;;;;;;18.77;5.55;;;;;;;10.29;34.20;96140.44;4899613;29;20043;-75
2022/03/23 06:00:49;;;;;;;14.15;4.50;;;;;;;10.32;34.17;96140.03;4931728;29;20087;-77
2022/03/23 06:03:14;;;;;;;11.18;4.88;;;;;;;10.43;34.40;96142.84;4929680;29;20114;-77
2022/03/23 06:05:40;;;;;;;9.63;4.40;;;;;;;10.55;34.36;96150.84;4911959;29;20253;-77
2022/03/23 06:08:05;;;;;;;14.02;5.15;;;;;;;10.49;34.07;96142.06;4913965;29;20067;-77
2022/03/23 06:10:31;;;;;;;22.55;5.07;;;;;;;10.43;34.38;96147.25;4930963;29;20039;-78
2022/03/23 06:12:56;;;;;;;10.25;4.40;;;;;;;10.73;34.42;96153.66;4929419;29;20028;-77
2022/03/23 06:15:22;;;;;;;16.20;4.63;;;;;;;10.60;34.32;96156.28;4914728;29;20115;-77
2022/03/23 06:17:47;;;;;;;12.60;4.65;;;;;;;10.06;35.07;96151.13;4929543;29;20023;-78
2022/03/23 06:20:14;;;;;;;7.68;4.63;;;;;;;9.54;35.88;96153.31;4913528;29;20119;-77
2022/03/23 06:22:39;;;;;;;11.20;4.88;;;;;;;9.37;36.69;96162.41;4930035;29;20027;-77
2022/03/23 06:25:07;;;;;;;22.10;5.82;;;;;;;9.71;36.79;96150.38;4930241;29;20039;-77
2022/03/23 06:27:32;;;;;;;12.43;5.13;;;;;;;10.05;36.05;96159.91;4930079;29;20582;-77
2022/03/23 06:29:58;;;;;;;19.90;5.25;;;;;;;10.34;35.58;96154.44;4898823;29;20051;-77
2022/03/23 06:32:23;;;;;;;14.38;4.82;;;;;;;10.41;35.75;96150.06;4914736;29;20036;-77
2022/03/23 06:34:48;;;;;;;13.30;5.43;;;;;;;10.19;35.98;96157.16;4915463;29;20035;-77
2022/03/23 06:39:46;;;;;;;;;;;;;;;9.88;36.43;96159.47;5507747;23;20055;-75
2022/03/23 06:42:12;;;;;;;9.93;4.03;;;;;;;9.78;36.74;96144.25;4934685;29;19926;-76
2022/03/23 06:44:38;;;;;;;13.77;4.72;;;;;;;10.22;36.58;96151.59;4927908;29;20032;-76
2022/03/23 06:47:04;;;;;;;10.80;4.10;;;;;;;10.60;35.12;96163.28;4921802;29;20079;-76
2022/03/23 06:49:30;;;;;;;8.48;4.15;;;;;;;10.80;34.75;96153.69;4923478;29;20072;-76
2022/03/23 06:51:55;;;;;;;13.18;3.72;;;;;;;10.98;34.47;96155.69;4923755;29;20503;-76
2022/03/23 06:54:21;;;;;;;10.98;4.03;;;;;;;10.79;34.59;96165.91;4924612;29;20445;-76
2022/03/23 06:56:50;;;;;;;10.30;4.45;;;;;;;10.64;35.02;96159.28;4929110;29;20039;-77
2022/03/23 06:59:16;;;;;;;8.82;4.10;;;;;;;10.33;35.87;96167.63;4926124;29;20103;-77
2022/03/23 07:01:41;;;;;;;7.82;3.92;;;;;;;10.33;35.77;96168.44;4923965;29;20032;-77
2022/03/23 07:04:07;;;;;;;16.77;4.43;;;;;;;10.00;36.59;96160.50;4908752;29;20043;-78
2022/03/23 07:06:32;;;;;;;12.93;3.92;;;;;;;10.02;35.91;96160.31;4910217;29;20036;-77
2022/03/23 07:11:44;;;;;;;10.48;3.88;;;;;;;10.01;35.81;96172.50;4914483;29;20151;-77
2022/03/23 07:14:10;;;;;;;16.77;4.45;;;;;;;10.17;35.48;96155.75;4913150;29;20478;-77
2022/03/23 07:16:35;;;;;;;5.75;3.53;;;;;;;10.19;35.29;96172.75;4896009;29;20044;-77
2022/03/23 07:19:01;;;;;;;11.43;4.03;;;;;;;9.93;35.72;96172.69;4896009;29;20040;-77
2022/03/23 07:21:26;;;;;;;5.93;3.95;;;;;;;9.58;36.13;96170.09;4894901;29;20039;-81
2022/03/23 07:23:52;;;;;;;9.35;4.13;;;;;;;9.52;37.05;96176.06;4879364;29;20037;-79
2022/03/23 07:26:18;;;;;;;12.63;4.07;;;;;;;9.45;36.78;96167.47;4901345;29;20035;-77
2022/03/23 07:28:44;;;;;;;6.82;3.25;;;;;;;9.67;36.56;96172.56;4894294;29;20116;-77
2022/03/23 07:31:09;;;;;;;9.80;4.03;;;;;;;9.95;35.90;96170.69;4896146;29;20048;-77
2022/03/23 07:33:35;;;;;;;5.25;3.45;;;;;;;9.63;36.34;96175.53;4896068;29;20045;-77
2022/03/23 07:36:02;;;;;;;8.88;4.07;;;;;;;9.30;36.65;96171.97;4898022;29;20409;-77
2022/03/23 07:38:27;;;;;;;9.88;3.45;;;;;;;9.80;36.46;96168.22;4894777;29;20047;-77
2022/03/23 07:40:53;;;;;;;11.18;4.18;;;;;;;10.00;35.46;96172.69;4864150;29;20033;-77
2022/03/23 07:43:18;;;;;;;9.75;4.32;;;;;;;10.06;36.29;96161.50;4895020;29;20473;-77
2022/03/23 07:45:43;;;;;;;14.85;3.58;;;;;;;10.16;35.32;96174.97;4877712;29;20114;-77
2022/03/23 07:48:09;;;;;;;14.75;4.25;;;;;;;10.20;34.72;96173.56;4895292;29;20033;-77
2022/03/23 07:50:34;;;;;;;6.93;3.50;;;;;;;10.30;34.83;96186.22;4898299;29;20413;-78
2022/03/23 07:53:00;;;;;;;10.13;3.97;;;;;;;10.47;34.76;96179.66;4894438;29;20036;-77
2022/03/23 07:55:25;;;;;;;8.82;3.90;;;;;;;10.55;34.27;96168.25;4894861;29;20080;-77
2022/03/23 07:57:53;;;;;;;16.20;4.65;;;;;;;10.72;34.05;96167.69;4877397;29;20032;-77
2022/03/23 08:00:18;;;;;;;10.38;3.75;;;;;;;10.53;33.98;96163.25;4863804;29;20032;-77
2022/03/23 08:02:44;;;;;;;13.27;3.70;;;;;;;10.87;33.56;96164.88;4877378;29;20514;-77
2022/03/23 08:05:10;;;;;;;16.17;3.85;;;;;;;11.01;33.13;96181.31;4877802;29;20044;-77
2022/03/23 08:07:35;;;;;;;17.55;3.95;;;;;;;10.71;33.25;96165.28;4893004;29;20519;-77
2022/03/23 08:10:00;;;;;;;15.88;3.42;;;;;;;10.57;33.96;96158.47;4893196;29;20231;-77
2022/03/23 08:12:26;;;;;;;12.98;4.45;;;;;;;10.65;33.89;96143.47;4893119;29;20032;-76
2022/03/23 08:14:52;;;;;;;9.48;4.45;;;;;;;10.66;32.97;96167.69;4894249;29;20044;-76
2022/03/23 08:17:17;;;;;;;16.92;4.40;;;;;;;10.56;33.32;96147.25;4893638;29;20044;-76
2022/03/23 08:19:43;;;;;;;10.45;4.38;;;;;;;10.80;33.11;96149.28;4862086;29;20434;-76
2022/03/23 08:22:09;;;;;;;18.80;4.82;;;;;;;10.58;33.34;96153.09;4894890;29;20437;-76
2022/03/23 08:24:34;;;;;;;12.25;3.72;;;;;;;10.69;32.88;96149.88;4900283;29;20501;-76
2022/03/23 08:27:00;;;;;;;17.42;3.88;;;;;;;10.83;33.05;96148.09;4896800;29;20081;-76
2022/03/23 08:29:25;;;;;;;8.35;3.85;;;;;;;11.04;32.62;96147.06;4862368;29;20032;-76
2022/03/23 08:31:52;;;;;;;10.15;4.20;;;;;;;10.99;32.38;96157.28;4877695;29;20096;-77
2022/03/23 08:34:17;;;;;;;15.43;3.90;;;;;;;10.81;32.64;96161.28;4893972;29;20040;-77
2022/03/23 08:36:43;;;;;;;9.23;4.45;;;;;;;10.81;32.50;96153.50;4892779;29;20028;-76
2022/03/23 08:39:08;;;;;;;13.68;4.07;;;;;;;10.68;32.80;96155.28;4893812;29;20048;-76
2022/03/23 08:41:34;;;;;;;11.55;3.75;;;;;;;10.94;32.80;96157.09;4877134;29;20039;-76
2022/03/23 08:43:59;;;;;;;41.03;5.60;;;;;;;10.78;32.17;96158.28;4876121;29;20029;-76
2022/03/23 08:46:25;;;;;;;10.77;3.90;;;;;;;10.51;32.54;96154.84;4891810;29;20033;-76
2022/03/23 08:48:51;;;;;;;16.05;4.43;;;;;;;10.41;32.50;96168.25;4877614;29;20044;-77
2022/03/23 08:51:17;;;;;;;10.70;4.80;;;;;;;10.03;33.44;96154.91;4879563;29;20055;-77
2022/03/23 08:53:42;;;;;;;15.73;5.05;;;;;;;9.50;33.88;96170.28;4861708;29;20047;-75
2022/03/23 08:56:10;;;;;;;14.98;3.70;;;;;;;9.38;34.29;96166.59;4898637;29;20114;-78
2022/03/23 08:58:39;;;;;;;15.63;4.85;;;;;;;8.99;35.33;96165.34;4897488;29;20052;-78
2022/03/23 09:01:05;;;;;;;12.43;5.07;;;;;;;8.80;34.98;96160.81;4897458;29;20056;-77
2022/03/23 09:03:31;;;;;;;17.65;5.75;;;;;;;8.78;35.69;96152.41;4901267;29;20043;-79
2022/03/23 09:05:58;;;;;;;22.67;4.28;;;;;;;9.14;35.37;96147.09;4901697;29;20032;-79
2022/03/23 09:08:24;;;;;;;11.75;5.18;;;;;;;9.25;34.46;96148.34;4885197;29;20088;-79
2022/03/23 09:10:49;;;;;;;35.25;5.63;;;;;;;8.76;35.04;96144.00;4899307;29;20033;-78
2022/03/23 09:13:15;;;;;;;9.30;4.18;;;;;;;8.70;35.79;96148.16;4883381;29;20040;-79
2022/03/23 09:15:40;;;;;;;11.23;4.85;;;;;;;8.76;35.46;96141.41;4869148;29;20045;-79
2022/03/23 09:18:09;;;;;;;9.43;4.75;;;;;;;8.99;35.09;96142.00;4905778;29;20044;-78
2022/03/23 09:20:34;;;;;;;16.98;4.75;;;;;;;8.99;35.09;96167.94;4864043;29;20188;-77
2022/03/23 09:23:00;;;;;;;19.63;4.95;;;;;;;8.73;35.08;96159.94;4893752;29;20064;-77
2022/03/23 09:25:25;;;;;;;10.85;4.50;;;;;;;8.62;34.82;96147.47;4895132;29;20048;-77
2022/03/23 09:27:51;;;;;;;11.25;4.30;;;;;;;8.58;35.48;96141.88;4898439;29;20040;-77
2022/03/23 09:30:17;;;;;;;8.18;4.45;;;;;;;8.56;35.82;96140.44;4897111;29;20135;-77
2022/03/23 09:32:43;;;;;;;16.90;4.40;;;;;;;8.55;35.10;96142.25;4895250;29;20497;-77
2022/03/23 09:35:08;;;;;;;7.68;3.92;;;;;;;8.56;35.78;96137.88;4895244;29;20067;-77
2022/03/23 09:37:49;;;;;;;5.18;3.75;;;;;;;8.39;35.75;96140.72;4881755;29;20037;-78
2022/03/23 09:40:25;;;;;;;11.98;4.40;;;;;;;8.42;36.06;96135.16;4900471;29;20036;-78
2022/03/23 09:43:02;;;;;;;9.55;5.35;;;;;;;8.65;35.99;96139.34;4907769;29;20108;-78
2022/03/23 09:45:52;;;;;;;10.27;4.22;;;;;;;8.48;34.96;96141.41;4880732;29;20048;-77
2022/03/23 09:48:21;;;;;;;15.93;4.95;;;;;;;8.76;34.62;96136.22;4903560;29;20064;-79
2022/03/23 09:50:52;;;;;;;9.27;4.40;;;;;;;8.88;35.30;96145.09;4897705;29;20107;-78
2022/03/23 09:53:19;;;;;;;15.85;4.38;;;;;;;8.71;35.28;96138.59;4906662;23;20086;-77
2022/03/23 09:55:45;;;;;;;8.50;4.40;;;;;;;8.45;35.63;96135.75;4957445;29;20070;-78
2022/03/23 09:58:10;;;;;;;18.52;4.38;;;;;;;8.23;36.74;96140.91;4950399;29;20035;-79
2022/03/23 10:00:40;;;;;;;15.20;4.30;;;;;;;7.80;36.87;96122.72;4930003;29;20050;-77
2022/03/23 10:03:12;;;;;;;11.02;3.75;;;;;;;8.00;37.79;96132.50;4954392;29;20050;-76
2022/03/23 10:05:45;;;;;;;18.45;4.40;;;;;;;8.35;36.48;96141.28;4952711;29;20154;-76
2022/03/23 10:08:44;;;;;;;5.05;4.28;;;;;;;8.28;36.24;96140.34;4952894;28;20035;-76
2022/03/23 10:11:47;;;;;;;12.32;4.28;;;;;;;8.54;36.64;96119.09;4949640;29;20039;-78
2022/03/23 10:14:49;;;;;;;12.52;4.72;;;;;;;8.58;35.96;96110.75;4952291;29;20188;-77
2022/03/23 10:17:40;;;;;;;7.80;4.65;;;;;;;8.65;35.59;96108.22;4952033;29;20047;-77
2022/03/23 10:20:05;;;;;;;13.20;4.68;;;;;;;8.45;35.91;96117.63;4966095;29;20031;-79
2022/03/23 10:22:31;;;;;;;11.15;4.22;;;;;;;8.43;35.02;96097.88;4945277;29;20050;-79
2022/03/23 10:25:07;;;;;;;10.35;4.72;;;;;;;8.39;35.59;96112.19;4943978;29;20031;-81
2022/03/23 10:27:32;;;;;;;15.98;4.70;;;;;;;8.07;36.32;96110.06;4947960;29;20073;-79
2022/03/23 10:29:58;;;;;;;15.45;4.95;;;;;;;8.13;36.64;96104.13;4942651;29;20039;-82
2022/03/23 10:32:24;;;;;;;6.25;4.20;;;;;;;8.38;36.52;96100.22;4942217;29;20058;-80
2022/03/23 10:34:53;;;;;;;18.73;3.88;;;;;;;8.58;35.07;96102.19;4918741;29;20047;-80
2022/03/23 10:37:30;;;;;;;7.22;4.63;;;;;;;8.65;34.78;96110.81;4933345;29;20032;-81
2022/03/23 10:39:57;;;;;;;10.93;4.05;;;;;;;8.63;35.66;96105.03;4956050;29;20046;-81
2022/03/23 10:42:24;;;;;;;11.07;4.10;;;;;;;8.75;35.51;96106.09;4955874;29;20058;-81
2022/03/23 10:44:49;;;;;;;13.85;4.70;;;;;;;8.63;35.88;96092.88;4931839;29;20526;-80
2022/03/23 10:47:26;;;;;;;8.43;4.53;;;;;;;8.85;34.90;96098.00;4957032;29;20043;-81
2022/03/23 10:49:51;;;;;;;9.43;4.60;;;;;;;8.75;35.16;96097.50;4934982;29;20042;-81
2022/03/23 10:52:18;;;;;;;14.25;4.28;;;;;;;8.63;35.67;96087.69;4939909;29;20039;-81
2022/03/23 10:54:57;;;;;;;12.05;4.47;;;;;;;8.78;34.71;96074.59;4915149;29;20038;-80
2022/03/23 10:58:01;;;;;;;8.65;4.22;;;;;;;8.78;35.08;96084.97;4945705;29;20050;-81
2022/03/23 11:00:32;;;;;;;5.70;3.85;;;;;;;8.60;34.62;96077.66;4920326;29;20129;-81
2022/03/23 11:02:58;;;;;;;8.75;4.60;;;;;;;8.56;34.76;96092.00;4939182;28;20032;-81
2022/03/23 11:05:37;;;;;;;9.20;4.20;;;;;;;8.65;33.86;96093.47;4954534;29;20032;-81
2022/03/23 11:08:09;;;;;;;11.60;4.15;;;;;;;8.75;33.91;96080.16;4939274;29;20420;-81
2022/03/23 11:16:12;;;;;;;9.85;4.32;;;;;;;8.86;34.25;96061.50;4963547;29;20070;-79
2022/03/23 11:18:39;;;;;;;16.45;4.88;;;;;;;8.87;33.49;96063.09;4967678;29;20102;-81
2022/03/23 11:21:04;;;;;;;10.82;4.43;;;;;;;8.95;34.22;96070.75;4949369;29;20050;-79
2022/03/23 11:23:31;;;;;;;14.40;4.45;;;;;;;9.08;34.29;96054.44;4926575;29;20035;-81
2022/03/23 11:26:03;;;;;;;5.20;3.95;;;;;;;9.36;34.42;96059.56;4939055;29;20524;-81
2022/03/23 11:28:32;;;;;;;18.75;5.03;;;;;;;9.33;33.69;96059.94;4957822;29;20027;-80
2022/03/23 11:30:58;;;;;;;14.43;4.13;;;;;;;9.37;33.83;96045.59;4966852;29;20031;-79
2022/03/23 11:33:25;;;;;;;9.57;4.57;;;;;;;9.47;33.24;96033.06;4956572;28;20031;-82
2022/03/23 11:35:51;;;;;;;12.32;4.45;;;;;;;9.65;32.74;96052.50;4933571;29;20028;-80
2022/03/23 11:38:18;;;;;;;9.13;4.72;;;;;;;9.58;32.81;96035.06;4923775;29;20035;-81
2022/03/23 11:40:44;;;;;;;12.38;3.83;;;;;;;9.65;32.42;96050.69;4944922;29;20046;-81
2022/03/23 11:43:14;;;;;;;11.15;4.05;;;;;;;9.47;32.26;96043.44;4954773;28;20070;-81
2022/03/23 11:45:42;;;;;;;9.35;4.20;;;;;;;9.40;32.11;96031.41;4915041;29;20043;-80
2022/03/23 11:48:26;;;;;;;7.28;3.90;;;;;;;9.50;31.89;96026.66;4938474;29;20517;-84
2022/03/23 11:51:49;;;;;;;20.45;3.85;;;;;;;9.53;31.67;96029.66;4955641;29;20547;-81
2022/03/23 11:55:37;;;;;;;;;;;;;;;9.66;31.43;96015.94;4886710;29;20041;-81
2022/03/23 11:57:19;;;;;;;8.50;3.58;;;;;;;9.76;32.13;96015.53;4887988;29;19923;-81
2022/03/23 11:59:45;;;;;;;9.70;3.47;;;;;;;9.75;32.26;96025.13;4940792;29;20062;-81